Time;durP1;ratioP1;P1;durP2;ratioP2;P2;SDS_P1;SDS_P2;PMS_P1;PMS_P2;Temp;Humidity;BMP_temperature;BMP_pressure;BME280_temperature;BME280_humidity;BME280_pressure;Samples;Min_cycle;Max_cycle;Signal;HPM_P1;HPM_P2
2023/02/02 00:01:53;;;;;;;4.73;1.53;;;6.70;99.90;;;;;;5006422;28;20472;-71
2023/02/02 00:04:29;;;;;;;3.50;1.60;;;6.70;99.90;;;;;;4994776;28;20490;-72
2023/02/02 00:06:57;;;;;;;6.53;2.17;;;6.70;99.90;;;;;;5010846;28;20461;-70
2023/02/02 00:09:27;;;;;;;2.37;1.60;;;6.70;99.90;;;;;;5010567;28;20449;-72
2023/02/02 00:11:54;;;;;;;3.53;1.40;;;6.70;99.90;;;;;;5011482;28;20541;-72
2023/02/02 00:14:20;;;;;;;12.50;2.77;;;6.70;99.90;;;;;;4994848;28;20457;-71
2023/02/02 00:16:51;;;;;;;3.33;1.93;;;6.70;99.90;;;;;;5011414;28;20468;-72
2023/02/02 00:19:26;;;;;;;3.47;1.50;;;6.70;99.90;;;;;;5010717;28;20540;-72
2023/02/02 00:21:53;;;;;;;4.73;1.97;;;6.70;99.90;;;;;;5010486;28;20519;-72
2023/02/02 00:24:19;;;;;;;5.70;1.57;;;6.70;99.90;;;;;;5010221;28;20470;-72
2023/02/02 00:26:51;;;;;;;5.53;2.03;;;6.70;99.90;;;;;;5011179;28;20457;-72
2023/02/02 00:29:20;;;;;;;7.03;1.60;;;6.70;99.90;;;;;;5010408;28;20838;-72
2023/02/02 00:31:46;;;;;;;4.17;1.53;;;6.70;99.90;;;;;;5008878;28;20445;-72
2023/02/02 00:34:13;;;;;;;5.07;1.83;;;6.70;99.90;;;;;;5010732;28;20469;-72
2023/02/02 00:36:40;;;;;;;1.17;1.17;;;6.70;99.90;;;;;;5010014;28;20988;-71
2023/02/02 00:39:06;;;;;;;4.07;1.90;;;6.70;99.90;;;;;;4996434;28;20465;-72
2023/02/02 00:41:32;;;;;;;3.07;1.60;;;6.70;99.90;;;;;;5009995;28;20465;-72
2023/02/02 00:46:42;;;;;;;5.27;1.60;;;6.80;99.90;;;;;;4990913;28;20228;-71
2023/02/02 00:49:08;;;;;;;4.83;2.00;;;6.70;99.90;;;;;;4989308;28;20909;-72
2023/02/02 00:51:35;;;;;;;2.00;1.60;;;6.70;99.90;;;;;;5010106;28;20695;-73
2023/02/02 00:54:02;;;;;;;3.30;1.30;;;6.70;99.90;;;;;;4993648;28;20462;-72
2023/02/02 00:56:28;;;;;;;3.90;1.60;;;6.70;99.90;;;;;;5002028;28;20527;-72
2023/02/02 00:58:53;;;;;;;8.37;1.60;;;6.70;99.90;;;;;;5009658;28;20577;-72
2023/02/02 01:01:20;;;;;;;4.57;2.20;;;6.70;99.90;;;;;;5009145;28;20738;-72
2023/02/02 01:03:48;;;;;;;6.83;2.33;;;6.80;99.90;;;;;;4993543;28;20233;-72
2023/02/02 01:06:13;;;;;;;3.63;1.67;;;6.70;99.90;;;;;;5001429;28;20461;-72
2023/02/02 01:08:39;;;;;;;3.60;1.90;;;6.70;99.90;;;;;;5009079;28;20461;-72
2023/02/02 01:11:07;;;;;;;1.40;1.30;;;6.70;99.90;;;;;;4990577;28;20704;-71
2023/02/02 01:13:32;;;;;;;2.87;1.63;;;6.80;99.90;;;;;;4991674;28;20496;-72
2023/02/02 01:16:00;;;;;;;3.70;1.50;;;6.70;99.90;;;;;;5006832;28;20454;-71
2023/02/02 01:18:27;;;;;;;2.80;1.47;;;6.70;99.90;;;;;;5008989;28;20305;-72
2023/02/02 01:21:02;;;;;;;1.50;1.40;;;6.70;99.90;;;;;;5010533;28;20544;-72
2023/02/02 01:23:28;;;;;;;6.67;1.87;;;6.70;99.90;;;;;;5010252;28;20457;-72
2023/02/02 01:25:55;;;;;;;9.00;1.70;;;6.70;99.90;;;;;;5010466;28;20453;-72
2023/02/02 01:28:21;;;;;;;2.40;1.67;;;6.70;99.90;;;;;;5008608;28;20510;-72
2023/02/02 01:30:47;;;;;;;5.33;1.00;;;6.70;99.90;;;;;;5010581;28;20545;-73
2023/02/02 01:33:15;;;;;;;2.60;1.67;;;6.80;99.90;;;;;;5009249;28;20484;-72
2023/02/02 01:36:17;;;;;;;2.43;1.73;;;6.70;99.90;;;;;;5009672;28;20519;-72
2023/02/02 01:38:44;;;;;;;2.70;1.90;;;6.70;99.90;;;;;;5005214;28;20480;-72
2023/02/02 01:41:16;;;;;;;1.93;1.33;;;6.70;99.90;;;;;;4999250;28;20464;-72
2023/02/02 01:43:44;;;;;;;2.07;1.60;;;6.80;99.90;;;;;;5004287;28;20523;-72
2023/02/02 01:46:12;;;;;;;12.37;1.90;;;6.70;99.90;;;;;;4989721;28;20557;-72
2023/02/02 01:48:41;;;;;;;4.53;1.83;;;6.70;99.90;;;;;;5003628;28;20463;-72
2023/02/02 01:51:12;;;;;;;6.77;2.00;;;6.80;99.90;;;;;;5008969;28;20472;-71
2023/02/02 01:53:41;;;;;;;3.63;1.97;;;6.70;99.90;;;;;;5008990;28;20527;-72
2023/02/02 01:56:09;;;;;;;3.10;1.30;;;6.80;99.90;;;;;;5009593;28;20454;-73
2023/02/02 01:58:39;;;;;;;2.00;1.10;;;6.80;99.90;;;;;;4990743;28;20508;-72
2023/02/02 02:01:05;;;;;;;5.23;1.37;;;6.80;99.90;;;;;;5006045;28;20510;-72
2023/02/02 02:03:34;;;;;;;9.53;1.57;;;6.80;99.90;;;;;;4995966;28;20461;-72
2023/02/02 02:06:10;;;;;;;3.93;1.70;;;6.80;99.90;;;;;;4989564;28;20517;-72
2023/02/02 02:09:02;;;;;;;1.57;1.17;;;6.80;99.90;;;;;;5005336;28;20489;-72
2023/02/02 02:11:28;;;;;;;1.73;1.20;;;6.80;99.90;;;;;;4997715;28;20848;-72
2023/02/02 02:17:02;;;;;;;2.53;1.27;;;6.80;99.90;;;;;;5009134;28;20504;-72
2023/02/02 02:26:38;;;;;;;3.80;2.00;;;6.80;99.90;;;;;;5008457;28;20442;-72
2023/02/02 02:29:29;;;;;;;2.90;1.50;;;6.80;99.90;;;;;;5016008;28;20448;-72
2023/02/02 02:31:58;;;;;;;2.10;1.53;;;6.80;99.90;;;;;;5008618;28;20519;-72
2023/02/02 02:34:30;;;;;;;3.20;1.60;;;6.80;99.90;;;;;;4992319;28;20512;-72
2023/02/02 02:37:07;;;;;;;3.23;1.17;;;6.80;99.90;;;;;;4990941;28;20454;-71
2023/02/02 02:39:37;;;;;;;3.30;1.43;;;6.80;99.90;;;;;;4995575;28;20964;-72
2023/02/02 02:42:08;;;;;;;1.53;1.37;;;6.80;99.90;;;;;;5001471;28;20483;-72
2023/02/02 02:44:35;;;;;;;4.63;1.30;;;6.80;99.90;;;;;;5006825;28;20537;-72
2023/02/02 02:47:02;;;;;;;3.50;1.40;;;6.90;99.90;;;;;;5010950;28;20497;-71
2023/02/02 02:49:27;;;;;;;2.03;1.60;;;6.80;99.90;;;;;;5012553;28;20448;-72
2023/02/02 02:51:55;;;;;;;4.00;2.00;;;6.80;99.90;;;;;;4996491;28;20548;-72
2023/02/02 02:54:40;;;;;;;1.77;1.53;;;6.80;99.90;;;;;;5012556;28;20496;-72
2023/02/02 02:57:22;;;;;;;3.80;1.47;;;6.80;99.90;;;;;;5011910;28;20512;-72
2023/02/02 02:59:52;;;;;;;9.23;1.33;;;6.80;99.90;;;;;;5008913;28;20500;-72
2023/02/02 03:02:39;;;;;;;2.60;1.20;;;6.80;99.90;;;;;;4999628;28;20462;-72
2023/02/02 03:05:05;;;;;;;3.50;1.70;;;6.80;99.90;;;;;;5009360;28;20446;-72
2023/02/02 03:07:37;;;;;;;2.07;1.47;;;6.90;99.90;;;;;;5010964;28;20513;-72
2023/02/02 03:10:06;;;;;;;4.40;1.53;;;6.90;99.90;;;;;;5012573;28;20219;-72
2023/02/02 03:12:32;;;;;;;4.80;1.70;;;6.90;99.90;;;;;;4998172;28;20449;-72
2023/02/02 03:14:58;;;;;;;2.73;1.33;;;6.90;99.90;;;;;;5006460;28;20466;-72
2023/02/02 03:17:26;;;;;;;1.40;1.10;;;6.90;99.90;;;;;;5006577;28;20458;-72
2023/02/02 03:19:52;;;;;;;1.43;1.30;;;6.90;99.90;;;;;;5012973;28;20297;-72
2023/02/02 03:22:17;;;;;;;2.53;1.13;;;6.90;99.90;;;;;;5013320;28;20561;-72
2023/02/02 03:24:43;;;;;;;2.83;1.60;;;6.80;99.90;;;;;;5011976;28;20340;-72
2023/02/02 03:27:09;;;;;;;2.10;1.30;;;6.80;99.90;;;;;;4995465;28;20226;-72
2023/02/02 03:29:35;;;;;;;5.33;1.67;;;6.80;99.90;;;;;;5011093;28;20219;-72
2023/02/02 03:32:01;;;;;;;1.93;1.47;;;6.80;99.90;;;;;;5013062;28;20455;-73
2023/02/02 03:34:27;;;;;;;1.80;1.03;;;6.80;99.90;;;;;;4995624;28;20827;-72
2023/02/02 03:36:52;;;;;;;1.93;1.40;;;6.80;99.90;;;;;;5012375;28;20216;-72
2023/02/02 03:39:18;;;;;;;2.70;1.70;;;6.80;99.90;;;;;;5011299;28;20219;-72
2023/02/02 03:41:44;;;;;;;1.83;1.23;;;6.80;99.90;;;;;;5012533;28;20317;-72
2023/02/02 03:44:09;;;;;;;4.00;1.30;;;6.80;99.90;;;;;;5010382;28;20260;-72
2023/02/02 03:46:35;;;;;;;0.87;0.80;;;6.80;99.90;;;;;;5011660;28;20298;-72
2023/02/02 03:49:01;;;;;;;2.90;1.53;;;6.80;99.90;;;;;;5010430;28;20212;-72
2023/02/02 03:51:26;;;;;;;1.83;1.63;;;6.80;99.90;;;;;;5010965;28;20283;-72
2023/02/02 03:53:52;;;;;;;5.00;1.73;;;6.80;99.90;;;;;;4995541;28;20239;-72
2023/02/02 03:56:18;;;;;;;2.20;1.50;;;6.80;99.90;;;;;;4994907;28;20389;-72
2023/02/02 03:58:46;;;;;;;3.80;1.30;;;6.80;99.90;;;;;;5001377;28;20222;-72
2023/02/02 04:01:13;;;;;;;1.40;1.30;;;6.80;99.90;;;;;;5011004;28;20462;-72
2023/02/02 04:03:39;;;;;;;3.03;1.27;;;6.80;99.90;;;;;;5000186;28;20569;-73
2023/02/02 04:06:05;;;;;;;3.10;1.13;;;6.80;99.90;;;;;;4995157;28;20555;-72
2023/02/02 04:08:30;;;;;;;4.20;1.87;;;6.80;99.90;;;;;;5009667;28;20306;-72
2023/02/02 04:10:56;;;;;;;1.63;1.53;;;6.80;99.90;;;;;;5010892;28;20217;-72
2023/02/02 04:13:22;;;;;;;2.30;1.33;;;6.80;99.90;;;;;;4994936;28;20273;-72
2023/02/02 04:15:54;;;;;;;2.83;1.80;;;6.80;99.90;;;;;;4993817;28;20227;-72
2023/02/02 04:18:20;;;;;;;5.00;1.90;;;6.80;99.90;;;;;;5010197;28;20314;-72
2023/02/02 04:20:46;;;;;;;2.20;2.00;;;6.80;99.90;;;;;;5008158;28;20540;-72
2023/02/02 04:23:11;;;;;;;5.60;1.70;;;6.80;99.90;;;;;;5010965;28;20284;-72
2023/02/02 04:25:37;;;;;;;3.50;1.87;;;6.90;99.90;;;;;;5010221;28;20219;-72
2023/02/02 04:28:03;;;;;;;4.50;1.87;;;6.90;99.90;;;;;;5002667;28;20322;-70
2023/02/02 04:30:28;;;;;;;2.93;1.60;;;6.80;99.90;;;;;;5002621;28;20741;-72
2023/02/02 04:32:54;;;;;;;4.43;1.90;;;6.90;99.90;;;;;;5010363;28;20225;-72
2023/02/02 04:35:19;;;;;;;9.20;1.80;;;6.90;99.90;;;;;;5011067;28;20214;-72
2023/02/02 04:37:45;;;;;;;2.20;1.70;;;6.90;99.90;;;;;;5009744;28;20223;-71
2023/02/02 04:40:12;;;;;;;4.40;1.57;;;6.90;99.90;;;;;;5011066;28;20230;-72
2023/02/02 04:42:37;;;;;;;2.93;1.43;;;6.90;99.90;;;;;;5009952;28;20234;-73
2023/02/02 04:45:03;;;;;;;2.27;1.33;;;6.90;99.90;;;;;;5010766;28;20473;-72
2023/02/02 04:47:29;;;;;;;4.53;1.63;;;6.90;99.90;;;;;;5006295;28;20342;-72
2023/02/02 04:49:54;;;;;;;4.70;1.50;;;6.90;99.90;;;;;;5008802;28;20970;-73
2023/02/02 04:52:20;;;;;;;2.87;1.70;;;6.90;99.90;;;;;;5008958;28;20717;-72
2023/02/02 04:54:46;;;;;;;2.37;1.30;;;6.90;99.90;;;;;;5007788;28;20754;-72
2023/02/02 04:57:12;;;;;;;6.10;2.33;;;6.90;99.90;;;;;;5008556;28;20224;-71
2023/02/02 04:59:37;;;;;;;6.27;1.90;;;6.90;99.90;;;;;;4989227;28;20243;-71
2023/02/02 05:02:03;;;;;;;4.87;1.70;;;6.90;99.90;;;;;;5010056;28;20230;-71
2023/02/02 05:04:29;;;;;;;2.60;1.87;;;6.90;99.90;;;;;;5011096;28;20265;-72
2023/02/02 05:06:55;;;;;;;3.90;1.73;;;6.90;99.90;;;;;;4995524;28;20239;-71
2023/02/02 05:09:20;;;;;;;2.43;1.80;;;6.90;99.90;;;;;;4984898;28;20226;-71
2023/02/02 05:11:46;;;;;;;2.73;1.53;;;6.90;99.90;;;;;;4996847;28;20219;-71
2023/02/02 05:14:13;;;;;;;2.00;1.43;;;6.90;99.90;;;;;;5009477;28;20231;-72
2023/02/02 05:16:38;;;;;;;5.83;1.80;;;6.90;99.90;;;;;;5009652;28;20221;-72
2023/02/02 05:19:04;;;;;;;0.90;0.90;;;6.90;99.90;;;;;;4998482;28;20518;-70
2023/02/02 05:21:30;;;;;;;3.73;2.00;;;6.90;99.90;;;;;;4993209;28;20238;-72
2023/02/02 05:23:56;;;;;;;2.13;1.40;;;6.90;99.90;;;;;;4990557;28;20463;-71
2023/02/02 05:26:25;;;;;;;1.90;1.47;;;6.90;99.90;;;;;;5003811;28;20232;-72
2023/02/02 05:28:51;;;;;;;1.93;1.70;;;6.90;99.90;;;;;;5008729;28;20489;-72
2023/02/02 05:31:18;;;;;;;5.50;1.43;;;6.90;99.90;;;;;;4980697;28;20459;-72
2023/02/02 05:33:44;;;;;;;5.67;1.60;;;6.90;99.90;;;;;;4984855;28;20534;-72
2023/02/02 05:36:10;;;;;;;4.97;1.50;;;6.90;99.90;;;;;;4993632;28;20549;-72
2023/02/02 05:38:36;;;;;;;2.67;1.43;;;6.90;99.90;;;;;;5004964;28;20298;-72
2023/02/02 05:41:02;;;;;;;3.87;1.43;;;6.90;99.90;;;;;;5009662;28;20555;-72
2023/02/02 05:43:29;;;;;;;14.73;2.00;;;6.90;99.90;;;;;;5008971;28;20234;-72
2023/02/02 05:45:55;;;;;;;5.00;1.30;;;6.90;99.90;;;;;;5004801;28;20458;-72
2023/02/02 05:48:21;;;;;;;4.43;1.40;;;6.90;99.90;;;;;;5005267;28;20459;-72
2023/02/02 05:51:13;;;;;;;2.13;1.40;;;6.90;99.90;;;;;;4993235;28;20277;-73
2023/02/02 05:53:39;;;;;;;7.03;1.37;;;6.90;99.90;;;;;;4991652;28;20301;-72
2023/02/02 05:56:05;;;;;;;4.67;1.27;;;6.90;99.90;;;;;;4986790;28;20452;-72
2023/02/02 05:58:30;;;;;;;4.10;1.63;;;6.90;99.90;;;;;;5005977;28;20219;-72
2023/02/02 06:00:56;;;;;;;2.00;1.67;;;6.90;99.90;;;;;;4995473;28;20378;-72
2023/02/02 06:03:22;;;;;;;9.43;1.60;;;6.90;99.90;;;;;;5009959;28;20853;-72
2023/02/02 06:05:47;;;;;;;4.90;2.17;;;6.90;99.90;;;;;;4992882;28;20713;-72
2023/02/02 06:08:13;;;;;;;1.27;1.17;;;6.90;99.90;;;;;;5008589;28;20216;-72
2023/02/02 06:10:40;;;;;;;4.57;1.30;;;6.90;99.90;;;;;;4992773;28;20222;-72
2023/02/02 06:13:06;;;;;;;4.03;2.00;;;6.90;99.90;;;;;;5004288;28;20270;-72
2023/02/02 06:15:33;;;;;;;3.63;1.50;;;6.90;99.90;;;;;;5010187;28;20465;-72
2023/02/02 06:17:59;;;;;;;3.80;1.60;;;6.90;99.90;;;;;;4996806;28;20461;-71
2023/02/02 06:20:26;;;;;;;2.50;1.80;;;6.90;99.90;;;;;;5020080;28;20470;-72
2023/02/02 06:22:51;;;;;;;3.90;1.63;;;6.90;99.90;;;;;;5023365;28;20449;-72
2023/02/02 06:25:17;;;;;;;1.97;1.30;;;6.90;99.90;;;;;;5001135;28;20461;-72
2023/02/02 06:27:48;;;;;;;6.30;1.70;;;6.90;99.90;;;;;;5008663;28;20223;-71
2023/02/02 06:30:14;;;;;;;1.20;1.10;;;6.90;99.90;;;;;;4986955;28;20232;-72
2023/02/02 06:32:40;;;;;;;3.77;1.57;;;6.90;99.90;;;;;;5007469;28;20455;-71
2023/02/02 06:35:06;;;;;;;2.70;1.80;;;6.90;99.90;;;;;;5009212;28;20536;-72
2023/02/02 06:37:33;;;;;;;2.03;1.63;;;6.80;99.90;;;;;;5000203;28;20473;-72
2023/02/02 06:39:59;;;;;;;9.80;2.03;;;6.90;99.90;;;;;;5008958;28;20497;-72
2023/02/02 06:42:24;;;;;;;1.73;1.23;;;6.90;99.90;;;;;;5007067;28;21048;-72
2023/02/02 06:44:50;;;;;;;3.83;1.50;;;6.90;99.90;;;;;;4991147;28;21009;-72
2023/02/02 06:47:16;;;;;;;2.90;1.07;;;6.90;99.90;;;;;;5008081;28;20461;-72
2023/02/02 06:49:42;;;;;;;5.30;2.10;;;6.90;99.90;;;;;;5007321;28;20222;-72
2023/02/02 06:52:07;;;;;;;1.53;1.40;;;6.90;99.90;;;;;;5007352;28;20219;-72
2023/02/02 06:54:33;;;;;;;5.77;1.53;;;6.90;99.90;;;;;;5008089;28;20226;-72
2023/02/02 06:56:59;;;;;;;4.60;1.63;;;6.90;99.90;;;;;;4990422;28;20527;-72
2023/02/02 06:59:24;;;;;;;3.60;1.67;;;6.90;99.90;;;;;;5007235;28;20301;-73
2023/02/02 07:01:50;;;;;;;3.03;1.70;;;6.90;99.90;;;;;;5002795;28;20241;-72
2023/02/02 07:04:17;;;;;;;4.93;1.80;;;6.90;99.90;;;;;;5007684;28;20254;-72
2023/02/02 07:06:43;;;;;;;2.80;1.40;;;7.00;99.90;;;;;;5007766;28;20253;-72
2023/02/02 07:09:08;;;;;;;2.87;1.27;;;6.90;99.90;;;;;;5008257;28;20496;-72
2023/02/02 07:11:37;;;;;;;2.67;1.73;;;7.00;99.90;;;;;;4986992;28;20237;-72
2023/02/02 07:14:03;;;;;;;5.93;1.70;;;7.00;99.90;;;;;;5008758;28;20230;-72
2023/02/02 07:16:29;;;;;;;2.83;1.37;;;7.00;99.90;;;;;;4972250;28;20464;-72
2023/02/02 07:18:56;;;;;;;3.37;1.57;;;7.00;99.90;;;;;;5007805;28;20449;-72
2023/02/02 07:21:27;;;;;;;4.63;1.83;;;7.00;99.90;;;;;;5017431;28;20528;-72
2023/02/02 07:23:52;;;;;;;4.20;1.60;;;7.00;99.90;;;;;;5006116;28;20471;-72
2023/02/02 07:26:18;;;;;;;4.10;1.97;;;7.00;99.90;;;;;;5008290;28;20472;-72
2023/02/02 07:28:44;;;;;;;3.30;2.00;;;7.00;99.90;;;;;;5017803;28;20677;-72
2023/02/02 07:31:17;;;;;;;1.90;1.40;;;7.00;99.90;;;;;;4995146;28;20795;-72
2023/02/02 07:33:44;;;;;;;1.63;1.10;;;7.00;99.90;;;;;;5008192;28;20473;-72
2023/02/02 07:36:11;;;;;;;2.27;1.40;;;7.00;99.90;;;;;;4989609;28;20545;-72
2023/02/02 07:38:37;;;;;;;3.50;1.67;;;7.00;99.90;;;;;;4999583;28;20512;-72
2023/02/02 07:41:03;;;;;;;2.10;1.33;;;7.10;99.90;;;;;;5012047;28;20528;-72
2023/02/02 07:43:29;;;;;;;4.50;1.90;;;7.00;99.90;;;;;;5010324;28;20238;-72
2023/02/02 07:46:02;;;;;;;2.70;1.30;;;7.10;99.90;;;;;;4996885;28;20464;-73
2023/02/02 07:48:29;;;;;;;3.07;1.90;;;7.00;99.90;;;;;;4971476;28;20231;-71
2023/02/02 07:51:06;;;;;;;3.10;1.20;;;7.00;99.90;;;;;;5010140;28;20974;-73
2023/02/02 07:53:32;;;;;;;1.70;1.07;;;7.00;99.90;;;;;;4990459;28;20529;-72
2023/02/02 07:56:13;;;;;;;5.10;1.83;;;7.10;99.90;;;;;;5003101;28;20453;-72
2023/02/02 07:58:39;;;;;;;2.80;1.40;;;7.00;99.90;;;;;;5005997;28;20488;-72
2023/02/02 08:01:07;;;;;;;4.03;1.17;;;7.00;99.90;;;;;;5004397;28;20472;-71
2023/02/02 08:03:34;;;;;;;3.80;1.70;;;7.00;99.90;;;;;;5011806;28;20482;-71
2023/02/02 08:06:00;;;;;;;1.87;1.70;;;7.00;99.90;;;;;;5010248;28;20454;-72
2023/02/02 08:08:26;;;;;;;1.70;1.10;;;7.00;99.90;;;;;;5009263;28;20468;-72
2023/02/02 08:10:52;;;;;;;4.40;1.90;;;7.10;99.90;;;;;;5010237;28;20478;-72
2023/02/02 08:13:18;;;;;;;4.53;1.60;;;7.10;99.90;;;;;;4992205;28;20225;-72
2023/02/02 08:15:44;;;;;;;2.87;1.43;;;7.10;99.90;;;;;;4986298;28;20436;-72
2023/02/02 08:18:10;;;;;;;4.73;2.20;;;7.10;99.90;;;;;;4990997;28;20545;-72
2023/02/02 08:20:36;;;;;;;3.80;1.50;;;7.10;99.90;;;;;;5006900;28;20466;-73
2023/02/02 08:23:01;;;;;;;3.80;1.70;;;7.10;99.90;;;;;;5009575;28;20214;-72
2023/02/02 08:25:27;;;;;;;6.83;2.00;;;7.10;99.90;;;;;;4994966;28;20211;-72
2023/02/02 08:27:54;;;;;;;3.23;1.87;;;7.10;99.90;;;;;;4982172;28;20220;-72
2023/02/02 08:30:20;;;;;;;7.00;2.17;;;7.10;99.90;;;;;;4992532;28;20236;-72
2023/02/02 08:32:45;;;;;;;2.23;1.43;;;7.10;99.90;;;;;;5008958;28;20451;-73
2023/02/02 08:35:12;;;;;;;10.37;1.67;;;7.10;99.90;;;;;;5008447;28;20222;-72
2023/02/02 08:37:37;;;;;;;2.73;1.03;;;7.10;99.90;;;;;;5007926;28;20226;-72
2023/02/02 08:40:03;;;;;;;2.37;1.30;;;7.10;99.90;;;;;;5009265;28;20458;-72
2023/02/02 08:42:29;;;;;;;3.43;1.60;;;7.10;99.90;;;;;;5008790;28;20227;-73
2023/02/02 08:44:54;;;;;;;10.03;2.03;;;7.20;99.90;;;;;;5008614;28;20456;-72
2023/02/02 08:47:20;;;;;;;4.33;1.50;;;7.20;99.90;;;;;;5010108;28;20220;-72
2023/02/02 08:49:46;;;;;;;3.67;1.30;;;7.20;99.90;;;;;;5009007;28;20312;-72
2023/02/02 08:52:11;;;;;;;3.40;1.87;;;7.20;99.90;;;;;;4991384;28;20277;-72
2023/02/02 08:54:37;;;;;;;5.83;1.67;;;7.20;99.90;;;;;;5009417;28;20280;-72
2023/02/02 08:57:03;;;;;;;2.27;1.27;;;7.30;99.90;;;;;;5007350;28;20312;-72
2023/02/02 08:59:28;;;;;;;4.40;1.30;;;7.30;99.90;;;;;;5008184;28;20241;-72
2023/02/02 09:01:54;;;;;;;2.80;1.00;;;7.40;99.90;;;;;;5009791;28;20314;-72
2023/02/02 09:04:20;;;;;;;3.57;1.43;;;7.40;99.90;;;;;;4991938;28;20237;-72
2023/02/02 09:06:46;;;;;;;4.40;1.70;;;7.40;99.90;;;;;;5007076;28;20971;-72
2023/02/02 09:09:14;;;;;;;2.23;1.70;;;7.40;99.90;;;;;;5007573;28;20231;-72
2023/02/02 09:11:40;;;;;;;2.87;1.90;;;7.40;99.90;;;;;;4994446;28;20231;-72
2023/02/02 09:14:06;;;;;;;7.50;2.47;;;7.40;99.90;;;;;;5001397;28;20467;-72
2023/02/02 09:16:33;;;;;;;3.27;2.50;;;7.40;99.90;;;;;;4989861;28;20465;-72
2023/02/02 09:18:59;;;;;;;2.50;2.30;;;7.40;99.90;;;;;;5008312;28;20450;-72
2023/02/02 09:21:25;;;;;;;5.27;2.63;;;7.40;99.90;;;;;;5004179;28;20477;-72
2023/02/02 09:23:52;;;;;;;2.87;2.40;;;7.40;99.90;;;;;;5008437;28;20230;-72
2023/02/02 09:26:25;;;;;;;5.30;2.50;;;7.40;99.90;;;;;;5008527;28;20561;-72
2023/02/02 09:28:53;;;;;;;5.50;2.10;;;7.40;99.90;;;;;;4990778;28;20507;-71
2023/02/02 09:31:19;;;;;;;9.90;2.07;;;7.40;99.90;;;;;;5008598;28;20458;-73
2023/02/02 09:33:45;;;;;;;2.90;1.47;;;7.50;99.90;;;;;;5009312;28;20454;-72
2023/02/02 09:36:19;;;;;;;2.30;1.03;;;7.50;99.90;;;;;;5009039;28;20233;-71
2023/02/02 09:38:46;;;;;;;4.17;1.50;;;7.50;99.90;;;;;;4981068;28;20498;-72
2023/02/02 09:41:36;;;;;;;1.57;1.40;;;7.50;99.90;;;;;;4986804;28;20482;-72
2023/02/02 09:44:23;;;;;;;12.07;5.20;;;7.60;99.90;;;;;;5003878;28;20596;-71
2023/02/02 09:46:48;;;;;;;20.13;11.30;;;7.60;99.90;;;;;;5001613;28;20442;-72
2023/02/02 09:49:24;;;;;;;23.43;13.67;;;7.60;99.90;;;;;;4991803;28;20465;-72
2023/02/02 09:52:02;;;;;;;12.23;7.80;;;7.60;99.90;;;;;;5007612;28;20610;-73
2023/02/02 09:54:35;;;;;;;11.80;6.60;;;7.60;99.90;;;;;;5009835;28;20462;-73
2023/02/02 09:57:09;;;;;;;20.00;9.20;;;7.60;99.90;;;;;;4992277;28;20466;-71
2023/02/02 09:59:39;;;;;;;14.83;8.50;;;7.60;99.90;;;;;;4979532;28;20502;-72
2023/02/02 10:02:32;;;;;;;10.93;6.20;;;7.60;99.90;;;;;;5003777;28;20466;-71
2023/02/02 10:05:08;;;;;;;3.57;2.70;;;7.60;99.90;;;;;;4996851;28;20455;-72
2023/02/02 10:07:41;;;;;;;7.30;1.67;;;7.60;99.90;;;;;;4991494;28;20532;-73
2023/02/02 10:10:40;;;;;;;3.00;1.10;;;7.60;99.90;;;;;;5007616;28;20465;-70
2023/02/02 10:13:21;;;;;;;2.50;1.60;;;7.60;99.90;;;;;;4980248;28;20447;-73
2023/02/02 10:16:10;;;;;;;8.20;4.23;;;7.70;99.90;;;;;;4985276;28;20453;-73
2023/02/02 10:18:54;;;;;;;14.10;8.50;;;7.70;99.90;;;;;;4989327;28;20459;-73
2023/02/02 10:21:37;;;;;;;9.53;7.37;;;7.70;99.90;;;;;;5006511;28;20480;-72
2023/02/02 10:24:03;;;;;;;5.50;3.27;;;7.70;99.90;;;;;;5008638;28;20465;-72
2023/02/02 10:26:42;;;;;;;7.73;3.60;;;7.70;99.90;;;;;;4987913;28;20522;-73
2023/02/02 10:29:26;;;;;;;10.97;6.37;;;7.70;99.90;;;;;;5003346;28;20704;-72
2023/02/02 10:32:10;;;;;;;12.97;6.20;;;7.80;99.90;;;;;;4996584;28;20540;-73
2023/02/02 10:34:53;;;;;;;8.40;3.57;;;7.80;99.90;;;;;;5004169;28;20831;-72
2023/02/02 10:37:36;;;;;;;5.77;3.27;;;7.80;99.90;;;;;;4992510;28;20533;-73
2023/02/02 10:40:47;;;;;;;4.37;2.00;;;7.80;99.90;;;;;;4993113;28;20451;-73
2023/02/02 10:43:53;;;;;;;7.20;1.60;;;7.80;99.90;;;;;;4948404;28;20482;-72
2023/02/02 10:46:26;;;;;;;2.73;1.30;;;7.80;99.90;;;;;;5017577;28;20524;-72
2023/02/02 10:49:11;;;;;;;6.73;1.40;;;7.80;99.90;;;;;;5008228;28;20449;-73
2023/02/02 10:51:37;;;;;;;3.87;1.40;;;7.80;99.90;;;;;;5007215;28;20449;-73
2023/02/02 10:54:24;;;;;;;2.47;0.90;;;7.90;99.90;;;;;;5005124;28;20512;-73
2023/02/02 10:56:52;;;;;;;1.60;0.83;;;7.90;99.90;;;;;;5008258;28;20225;-72
2023/02/02 10:59:26;;;;;;;1.97;1.20;;;7.90;99.90;;;;;;5007406;28;20500;-73
2023/02/02 11:01:52;;;;;;;2.30;1.07;;;7.90;99.90;;;;;;5008642;28;20979;-73
2023/02/02 11:07:04;;;;;;;2.40;1.10;;;7.90;99.90;;;;;;5008570;28;20214;-71
2023/02/02 11:09:38;;;;;;;2.37;1.57;;;8.00;99.90;;;;;;5007899;28;20884;-73
2023/02/02 11:12:15;;;;;;;6.07;1.33;;;8.00;99.90;;;;;;4980668;28;20215;-72
2023/02/02 11:15:01;;;;;;;3.87;1.20;;;8.10;99.90;;;;;;5006962;28;20497;-73
2023/02/02 11:17:27;;;;;;;1.50;1.40;;;8.10;99.90;;;;;;4972672;28;20847;-73
2023/02/02 11:19:54;;;;;;;3.80;2.27;;;8.10;99.90;;;;;;5000387;28;20469;-73
2023/02/02 11:22:37;;;;;;;4.40;2.00;;;8.10;99.90;;;;;;4997028;28;20490;-73
2023/02/02 11:25:35;;;;;;;1.30;1.20;;;8.20;99.90;;;;;;4993931;28;20461;-72
2023/02/02 11:28:17;;;;;;;1.90;1.30;;;8.20;99.90;;;;;;5001730;28;20516;-72
2023/02/02 11:30:47;;;;;;;1.70;1.23;;;8.30;99.90;;;;;;5011369;28;20462;-73
2023/02/02 11:33:25;;;;;;;1.20;1.10;;;8.30;99.90;;;;;;5010315;28;20470;-73
2023/02/02 11:35:58;;;;;;;0.87;0.80;;;8.40;99.90;;;;;;5009909;28;20484;-73
2023/02/02 11:38:25;;;;;;;4.40;1.70;;;8.40;99.90;;;;;;5004833;28;20523;-73
2023/02/02 11:41:02;;;;;;;7.17;4.10;;;8.40;99.90;;;;;;4990900;28;20471;-71
2023/02/02 11:43:46;;;;;;;8.93;5.13;;;8.40;99.90;;;;;;4996357;28;20471;-73
2023/02/02 11:46:23;;;;;;;5.70;3.40;;;8.40;99.90;;;;;;5004340;28;20462;-73
2023/02/02 11:48:58;;;;;;;1.90;1.27;;;8.40;99.90;;;;;;4998514;28;20462;-72
2023/02/02 11:51:25;;;;;;;3.37;1.10;;;8.40;99.90;;;;;;4991862;28;20580;-74
2023/02/02 11:54:14;;;;;;;3.27;1.80;;;8.40;99.90;;;;;;5011432;28;20556;-73
2023/02/02 11:56:41;;;;;;;2.17;1.97;;;8.40;99.90;;;;;;4992871;28;20534;-71
2023/02/02 11:59:25;;;;;;;1.70;1.50;;;8.50;99.90;;;;;;4988960;28;20462;-70
2023/02/02 12:02:09;;;;;;;0.93;0.80;;;8.50;99.90;;;;;;5007860;28;20470;-73
2023/02/02 12:04:35;;;;;;;2.20;0.90;;;8.50;99.90;;;;;;5011381;28;20501;-72
2023/02/02 12:07:00;;;;;;;1.10;0.80;;;8.50;99.90;;;;;;5010222;28;20461;-72
2023/02/02 12:09:27;;;;;;;2.67;1.20;;;8.50;99.90;;;;;;4991517;28;20226;-73
2023/02/02 12:12:19;;;;;;;2.27;1.20;;;8.60;99.90;;;;;;5006205;28;20223;-73
2023/02/02 12:15:22;;;;;;;1.00;0.80;;;8.60;99.90;;;;;;5008251;28;20545;-73
2023/02/02 12:17:54;;;;;;;1.00;0.93;;;8.70;99.90;;;;;;5009584;28;20477;-73
2023/02/02 12:20:29;;;;;;;2.07;1.20;;;8.70;99.90;;;;;;4991257;28;20466;-73
2023/02/02 12:23:04;;;;;;;2.70;1.00;;;8.80;99.90;;;;;;5005528;28;20502;-72
2023/02/02 12:25:36;;;;;;;1.20;0.90;;;8.70;99.90;;;;;;5008175;28;20523;-72
2023/02/02 12:28:20;;;;;;;5.27;1.20;;;8.80;99.90;;;;;;5006031;28;20815;-73
2023/02/02 12:31:15;;;;;;;0.90;0.90;;;8.80;99.90;;;;;;4992303;28;20437;-73
2023/02/02 12:33:43;;;;;;;1.47;0.97;;;8.80;99.90;;;;;;4992471;28;20553;-73
2023/02/02 12:36:46;;;;;;;2.97;1.10;;;8.90;99.90;;;;;;4990696;28;20454;-73
2023/02/02 12:39:21;;;;;;;0.87;0.87;;;8.90;99.90;;;;;;5007730;28;20457;-71
2023/02/02 12:42:20;;;;;;;2.50;1.20;;;8.90;99.90;;;;;;5004409;28;20481;-73
2023/02/02 12:44:58;;;;;;;1.47;0.73;;;9.00;99.90;;;;;;4996007;28;20442;-73
2023/02/02 12:47:39;;;;;;;2.80;1.00;;;9.00;99.90;;;;;;5002361;28;21003;-73
2023/02/02 12:50:14;;;;;;;2.00;0.70;;;9.00;99.90;;;;;;4998027;28;20481;-73
2023/02/02 12:52:54;;;;;;;1.23;0.60;;;9.10;99.90;;;;;;5001691;28;20477;-73
2023/02/02 12:55:38;;;;;;;1.10;0.93;;;9.10;99.90;;;;;;5002173;28;20503;-73
2023/02/02 12:58:13;;;;;;;0.67;0.60;;;9.10;99.90;;;;;;4994748;28;21000;-71
2023/02/02 13:00:55;;;;;;;0.87;0.87;;;9.20;99.90;;;;;;4983302;28;20481;-70
2023/02/02 13:03:49;;;;;;;1.00;0.90;;;9.20;99.90;;;;;;5003590;28;20454;-73
2023/02/02 13:06:21;;;;;;;2.83;1.03;;;9.20;99.90;;;;;;5014890;28;20458;-73
2023/02/02 13:09:05;;;;;;;0.70;0.67;;;9.30;99.90;;;;;;4995892;28;20460;-73
2023/02/02 13:11:43;;;;;;;0.87;0.70;;;9.20;99.90;;;;;;4997040;28;20465;-73
2023/02/02 13:14:22;;;;;;;5.57;1.00;;;9.30;99.90;;;;;;5001323;28;20459;-73
2023/02/02 13:16:53;;;;;;;4.20;1.87;;;9.30;99.90;;;;;;4998089;28;20456;-73
2023/02/02 13:19:33;;;;;;;3.20;2.40;;;9.30;99.90;;;;;;4991100;28;20479;-71
2023/02/02 13:22:01;;;;;;;12.17;7.10;;;9.30;99.90;;;;;;4966954;28;20479;-73
2023/02/02 13:24:30;;;;;;;11.90;7.83;;;9.30;99.90;;;;;;4987080;28;20466;-71
2023/02/02 13:26:59;;;;;;;17.43;9.73;;;9.30;99.90;;;;;;4995638;28;20535;-72
2023/02/02 13:29:45;;;;;;;17.20;7.07;;;9.30;99.90;;;;;;4979198;28;20459;-73